sensor_id;sensor_type;location;lat;lon;timestamp;pressure;altitude;pressure_sealevel;temperature;humidity
73422;BME280;61637;47.760;-122.022;2023-04-03T00:00:01;101253.06099999999;;;4.8;unknown
73422;BME280;61637;47.760;-122.022;2023-04-03T00:02:01;101253.06099999999;;;4.9;unknown
73422;BME280;61637;47.760;-122.022;2023-04-03T00:04:01;101253.06099999999;;;5.0;unknown
73422;BME280;61637;47.760;-122.022;2023-04-03T00:06:01;101253.06099999999;;;5.0;unknown
73422;BME280;61637;47.760;-122.022;2023-04-03T00:08:01;101253.06099999999;;;4.9;unknown
73422;BME280;61637;47.760;-122.022;2023-04-03T00:10:01;101253.06099999999;;;4.7;unknown
73422;BME280;61637;47.760;-122.022;2023-04-03T00:12:01;101253.06099999999;;;4.7;unknown
73422;BME280;61637;47.760;-122.022;2023-04-03T00:14:01;101253.06099999999;;;4.6;unknown
73422;BME280;61637;47.760;-122.022;2023-04-03T00:16:01;101253.06099999999;;;4.6;unknown
73422;BME280;61637;47.760;-122.022;2023-04-03T00:18:01;101253.06099999999;;;4.6;unknown
73422;BME280;61637;47.760;-122.022;2023-04-03T00:20:02;101253.06099999999;;;4.6;unknown
73422;BME280;61637;47.760;-122.022;2023-04-03T00:22:01;101253.06099999999;;;4.5;unknown
73422;BME280;61637;47.760;-122.022;2023-04-03T00:24:01;101253.06099999999;;;4.5;unknown
73422;BME280;61637;47.760;-122.022;2023-04-03T00:26:01;101253.06099999999;;;4.6;unknown
73422;BME280;61637;47.760;-122.022;2023-04-03T00:28:01;101253.06099999999;;;4.6;unknown
73422;BME280;61637;47.760;-122.022;2023-04-03T00:30:01;101253.06099999999;;;4.5;unknown
73422;BME280;61637;47.760;-122.022;2023-04-03T00:32:01;101253.06099999999;;;4.6;unknown
73422;BME280;61637;47.760;-122.022;2023-04-03T00:34:01;101253.06099999999;;;4.6;unknown
73422;BME280;61637;47.760;-122.022;2023-04-03T00:36:05;101253.06099999999;;;4.6;unknown
73422;BME280;61637;47.760;-122.022;2023-04-03T00:38:01;101253.06099999999;;;4.6;unknown
73422;BME280;61637;47.760;-122.022;2023-04-03T00:40:01;101253.06099999999;;;4.7;unknown
73422;BME280;61637;47.760;-122.022;2023-04-03T00:42:01;101253.06099999999;;;4.7;unknown
73422;BME280;61637;47.760;-122.022;2023-04-03T00:46:01;101253.06099999999;;;4.7;unknown
73422;BME280;61637;47.760;-122.022;2023-04-03T00:48:01;101253.06099999999;;;4.6;unknown
73422;BME280;61637;47.760;-122.022;2023-04-03T00:50:01;101253.06099999999;;;4.6;unknown
73422;BME280;61637;47.760;-122.022;2023-04-03T00:52:01;101253.06099999999;;;4.6;unknown
73422;BME280;61637;47.760;-122.022;2023-04-03T00:54:02;101253.06099999999;;;4.4;unknown
73422;BME280;61637;47.760;-122.022;2023-04-03T00:56:01;101253.06099999999;;;4.4;unknown
73422;BME280;61637;47.760;-122.022;2023-04-03T00:58:01;101253.06099999999;;;4.3;unknown
73422;BME280;61637;47.760;-122.022;2023-04-03T01:00:02;101253.06099999999;;;4.3;unknown
73422;BME280;61637;47.760;-122.022;2023-04-03T01:02:01;101253.06099999999;;;4.3;unknown
73422;BME280;61637;47.760;-122.022;2023-04-03T01:04:01;101253.06099999999;;;4.2;unknown
73422;BME280;61637;47.760;-122.022;2023-04-03T01:06:01;101253.06099999999;;;4.2;unknown
73422;BME280;61637;47.760;-122.022;2023-04-03T01:08:01;101253.06099999999;;;4.2;unknown
73422;BME280;61637;47.760;-122.022;2023-04-03T01:10:02;101253.06099999999;;;4.2;unknown
73422;BME280;61637;47.760;-122.022;2023-04-03T01:14:01;101253.06099999999;;;4.1;unknown
73422;BME280;61637;47.760;-122.022;2023-04-03T01:16:01;101253.06099999999;;;4.1;unknown
73422;BME280;61637;47.760;-122.022;2023-04-03T01:18:01;101253.06099999999;;;4.0;unknown
73422;BME280;61637;47.760;-122.022;2023-04-03T01:20:08;101253.06099999999;;;4.0;unknown
73422;BME280;61637;47.760;-122.022;2023-04-03T01:22:04;101253.06099999999;;;4.0;unknown
73422;BME280;61637;47.760;-122.022;2023-04-03T01:24:06;101253.06099999999;;;3.9;unknown
73422;BME280;61637;47.760;-122.022;2023-04-03T01:26:01;101253.06099999999;;;3.9;unknown
73422;BME280;61637;47.760;-122.022;2023-04-03T01:28:01;101253.06099999999;;;3.9;unknown
73422;BME280;61637;47.760;-122.022;2023-04-03T01:30:01;101253.06099999999;;;3.8;unknown
73422;BME280;61637;47.760;-122.022;2023-04-03T01:32:01;101253.06099999999;;;3.8;unknown
73422;BME280;61637;47.760;-122.022;2023-04-03T01:34:01;101253.06099999999;;;3.8;unknown
73422;BME280;61637;47.760;-122.022;2023-04-03T01:36:01;101253.06099999999;;;3.8;unknown
73422;BME280;61637;47.760;-122.022;2023-04-03T01:38:01;101253.06099999999;;;3.8;unknown
73422;BME280;61637;47.760;-122.022;2023-04-03T01:40:01;101253.06099999999;;;3.9;unknown
73422;BME280;61637;47.760;-122.022;2023-04-03T01:42:01;101253.06099999999;;;3.9;unknown
73422;BME280;61637;47.760;-122.022;2023-04-03T01:44:01;101253.06099999999;;;3.9;unknown
73422;BME280;61637;47.760;-122.022;2023-04-03T01:46:01;101253.06099999999;;;3.8;unknown
73422;BME280;61637;47.760;-122.022;2023-04-03T01:48:01;101253.06099999999;;;3.8;unknown
73422;BME280;61637;47.760;-122.022;2023-04-03T01:50:01;101253.06099999999;;;3.7;unknown
73422;BME280;61637;47.760;-122.022;2023-04-03T01:52:01;101253.06099999999;;;3.7;unknown
73422;BME280;61637;47.760;-122.022;2023-04-03T01:54:01;101253.06099999999;;;3.6;unknown
73422;BME280;61637;47.760;-122.022;2023-04-03T01:56:01;101253.06099999999;;;3.6;unknown
73422;BME280;61637;47.760;-122.022;2023-04-03T01:58:01;101253.06099999999;;;3.6;unknown
73422;BME280;61637;47.760;-122.022;2023-04-03T02:00:01;101253.06099999999;;;3.5;unknown
73422;BME280;61637;47.760;-122.022;2023-04-03T02:02:01;101253.06099999999;;;3.4;unknown
73422;BME280;61637;47.760;-122.022;2023-04-03T02:04:01;101253.06099999999;;;3.3;unknown
73422;BME280;61637;47.760;-122.022;2023-04-03T02:06:01;101253.06099999999;;;3.3;unknown
73422;BME280;61637;47.760;-122.022;2023-04-03T02:08:01;101253.06099999999;;;3.2;unknown
73422;BME280;61637;47.760;-122.022;2023-04-03T02:10:01;101253.06099999999;;;3.2;unknown
73422;BME280;61637;47.760;-122.022;2023-04-03T02:12:01;101253.06099999999;;;3.1;unknown
73422;BME280;61637;47.760;-122.022;2023-04-03T02:14:01;101253.06099999999;;;3.0;unknown
73422;BME280;61637;47.760;-122.022;2023-04-03T02:16:06;101253.06099999999;;;2.8;unknown
73422;BME280;61637;47.760;-122.022;2023-04-03T02:18:01;101253.06099999999;;;2.7;unknown
73422;BME280;61637;47.760;-122.022;2023-04-03T02:20:01;101253.06099999999;;;2.6;unknown
73422;BME280;61637;47.760;-122.022;2023-04-03T02:22:01;101253.06099999999;;;2.4;unknown
73422;BME280;61637;47.760;-122.022;2023-04-03T02:24:01;101253.06099999999;;;2.3;unknown
73422;BME280;61637;47.760;-122.022;2023-04-03T02:26:05;101253.06099999999;;;2.3;unknown
73422;BME280;61637;47.760;-122.022;2023-04-03T02:28:01;101253.06099999999;;;2.1;unknown
73422;BME280;61637;47.760;-122.022;2023-04-03T02:30:01;101253.06099999999;;;1.9;unknown
73422;BME280;61637;47.760;-122.022;2023-04-03T02:32:01;101253.06099999999;;;1.8;unknown
73422;BME280;61637;47.760;-122.022;2023-04-03T02:34:01;101253.06099999999;;;1.8;unknown
73422;BME280;61637;47.760;-122.022;2023-04-03T02:36:01;101253.06099999999;;;1.7;unknown
73422;BME280;61637;47.760;-122.022;2023-04-03T02:38:01;101253.06099999999;;;1.6;unknown
73422;BME280;61637;47.760;-122.022;2023-04-03T02:40:01;101253.06099999999;;;1.5;unknown
73422;BME280;61637;47.760;-122.022;2023-04-03T02:42:01;101253.06099999999;;;1.4;unknown
73422;BME280;61637;47.760;-122.022;2023-04-03T02:44:01;101253.06099999999;;;1.3;unknown
73422;BME280;61637;47.760;-122.022;2023-04-03T02:46:01;101253.06099999999;;;1.3;unknown
73422;BME280;61637;47.760;-122.022;2023-04-03T02:48:01;101253.06099999999;;;1.2;unknown
73422;BME280;61637;47.760;-122.022;2023-04-03T02:50:01;101253.06099999999;;;1.2;unknown
73422;BME280;61637;47.760;-122.022;2023-04-03T02:52:01;101253.06099999999;;;1.1;unknown
73422;BME280;61637;47.760;-122.022;2023-04-03T02:54:01;101253.06099999999;;;1.1;unknown
73422;BME280;61637;47.760;-122.022;2023-04-03T02:56:01;101253.06099999999;;;1.0;unknown
73422;BME280;61637;47.760;-122.022;2023-04-03T02:58:01;101253.06099999999;;;1.0;unknown
73422;BME280;61637;47.760;-122.022;2023-04-03T03:00:01;101253.06099999999;;;0.9;unknown
73422;BME280;61637;47.760;-122.022;2023-04-03T03:02:01;101253.06099999999;;;0.9;unknown
73422;BME280;61637;47.760;-122.022;2023-04-03T03:04:01;101253.06099999999;;;0.9;unknown
73422;BME280;61637;47.760;-122.022;2023-04-03T03:06:02;101253.06099999999;;;0.9;unknown
73422;BME280;61637;47.760;-122.022;2023-04-03T03:08:01;101253.06099999999;;;0.9;unknown
73422;BME280;61637;47.760;-122.022;2023-04-03T03:10:01;101253.06099999999;;;0.9;unknown
73422;BME280;61637;47.760;-122.022;2023-04-03T03:12:01;101253.06099999999;;;0.8;unknown
73422;BME280;61637;47.760;-122.022;2023-04-03T03:14:01;101253.06099999999;;;0.8;unknown
73422;BME280;61637;47.760;-122.022;2023-04-03T03:16:01;101253.06099999999;;;0.8;unknown
73422;BME280;61637;47.760;-122.022;2023-04-03T03:18:02;101591.7;;;0.8;unknown
73422;BME280;61637;47.760;-122.022;2023-04-03T03:20:01;101253.06099999999;;;0.8;unknown
73422;BME280;61637;47.760;-122.022;2023-04-03T03:22:01;101591.7;;;0.8;unknown
73422;BME280;61637;47.760;-122.022;2023-04-03T03:24:01;101591.7;;;0.8;unknown
73422;BME280;61637;47.760;-122.022;2023-04-03T03:26:02;101591.7;;;0.7;unknown
73422;BME280;61637;47.760;-122.022;2023-04-03T03:28:01;101591.7;;;0.7;unknown
73422;BME280;61637;47.760;-122.022;2023-04-03T03:30:01;101591.7;;;0.7;unknown
73422;BME280;61637;47.760;-122.022;2023-04-03T03:32:01;101591.7;;;0.6;unknown
73422;BME280;61637;47.760;-122.022;2023-04-03T03:34:01;101591.7;;;0.6;unknown
73422;BME280;61637;47.760;-122.022;2023-04-03T03:36:01;101591.7;;;0.6;unknown
73422;BME280;61637;47.760;-122.022;2023-04-03T03:38:01;101591.7;;;0.6;unknown
73422;BME280;61637;47.760;-122.022;2023-04-03T03:40:01;101591.7;;;0.5;unknown
73422;BME280;61637;47.760;-122.022;2023-04-03T03:42:01;101591.7;;;0.4;unknown
73422;BME280;61637;47.760;-122.022;2023-04-03T03:44:01;101591.7;;;0.4;unknown
73422;BME280;61637;47.760;-122.022;2023-04-03T03:46:01;101591.7;;;0.4;unknown
73422;BME280;61637;47.760;-122.022;2023-04-03T03:48:01;101591.7;;;0.4;unknown
73422;BME280;61637;47.760;-122.022;2023-04-03T03:50:01;101591.7;;;0.4;unknown
73422;BME280;61637;47.760;-122.022;2023-04-03T03:52:01;101591.7;;;0.4;unknown
73422;BME280;61637;47.760;-122.022;2023-04-03T03:54:01;101591.7;;;0.4;unknown
73422;BME280;61637;47.760;-122.022;2023-04-03T03:56:01;101591.7;;;0.4;unknown
73422;BME280;61637;47.760;-122.022;2023-04-03T03:58:01;101591.7;;;0.4;unknown
73422;BME280;61637;47.760;-122.022;2023-04-03T04:00:01;101591.7;;;0.4;unknown
73422;BME280;61637;47.760;-122.022;2023-04-03T04:02:01;101591.7;;;0.4;unknown
73422;BME280;61637;47.760;-122.022;2023-04-03T04:04:01;101591.7;;;0.5;unknown
73422;BME280;61637;47.760;-122.022;2023-04-03T04:06:01;101591.7;;;0.5;unknown
73422;BME280;61637;47.760;-122.022;2023-04-03T04:08:01;101591.7;;;0.5;unknown
73422;BME280;61637;47.760;-122.022;2023-04-03T04:10:01;101591.7;;;0.6;unknown
73422;BME280;61637;47.760;-122.022;2023-04-03T04:12:01;101591.7;;;0.5;unknown
73422;BME280;61637;47.760;-122.022;2023-04-03T04:14:01;101591.7;;;0.6;unknown
73422;BME280;61637;47.760;-122.022;2023-04-03T04:16:01;101591.7;;;0.5;unknown
73422;BME280;61637;47.760;-122.022;2023-04-03T04:18:01;101591.7;;;0.4;unknown
73422;BME280;61637;47.760;-122.022;2023-04-03T04:20:01;101591.7;;;0.4;unknown
73422;BME280;61637;47.760;-122.022;2023-04-03T04:22:01;101591.7;;;0.4;unknown
73422;BME280;61637;47.760;-122.022;2023-04-03T04:24:01;101591.7;;;0.4;unknown
73422;BME280;61637;47.760;-122.022;2023-04-03T04:26:01;101591.7;;;0.4;unknown
73422;BME280;61637;47.760;-122.022;2023-04-03T04:28:01;101591.7;;;0.4;unknown
73422;BME280;61637;47.760;-122.022;2023-04-03T04:30:01;101591.7;;;0.5;unknown
73422;BME280;61637;47.760;-122.022;2023-04-03T04:32:01;101591.7;;;0.6;unknown
73422;BME280;61637;47.760;-122.022;2023-04-03T04:34:01;101591.7;;;0.6;unknown
73422;BME280;61637;47.760;-122.022;2023-04-03T04:36:01;101591.7;;;0.6;unknown
73422;BME280;61637;47.760;-122.022;2023-04-03T04:38:01;101591.7;;;0.6;unknown
73422;BME280;61637;47.760;-122.022;2023-04-03T04:40:01;101591.7;;;0.6;unknown
73422;BME280;61637;47.760;-122.022;2023-04-03T04:42:01;101591.7;;;0.6;unknown
73422;BME280;61637;47.760;-122.022;2023-04-03T04:44:01;101591.7;;;0.6;unknown
73422;BME280;61637;47.760;-122.022;2023-04-03T04:46:01;101591.7;;;0.6;unknown
73422;BME280;61637;47.760;-122.022;2023-04-03T04:48:01;101591.7;;;0.5;unknown
73422;BME280;61637;47.760;-122.022;2023-04-03T04:50:01;101591.7;;;0.5;unknown
73422;BME280;61637;47.760;-122.022;2023-04-03T04:52:01;101591.7;;;0.6;unknown
73422;BME280;61637;47.760;-122.022;2023-04-03T04:54:01;101591.7;;;0.5;unknown
73422;BME280;61637;47.760;-122.022;2023-04-03T04:56:01;101591.7;;;0.6;unknown
73422;BME280;61637;47.760;-122.022;2023-04-03T04:58:01;101591.7;;;0.5;unknown
73422;BME280;61637;47.760;-122.022;2023-04-03T05:00:01;101591.7;;;0.5;unknown
73422;BME280;61637;47.760;-122.022;2023-04-03T05:02:01;101591.7;;;0.5;unknown
73422;BME280;61637;47.760;-122.022;2023-04-03T05:04:01;101591.7;;;0.4;unknown
73422;BME280;61637;47.760;-122.022;2023-04-03T05:06:01;101591.7;;;0.4;unknown
73422;BME280;61637;47.760;-122.022;2023-04-03T05:08:01;101591.7;;;0.4;unknown
73422;BME280;61637;47.760;-122.022;2023-04-03T05:10:01;101591.7;;;0.4;unknown
73422;BME280;61637;47.760;-122.022;2023-04-03T05:12:01;101591.7;;;0.4;unknown
73422;BME280;61637;47.760;-122.022;2023-04-03T05:14:01;101591.7;;;0.4;unknown
73422;BME280;61637;47.760;-122.022;2023-04-03T05:16:01;101591.7;;;0.4;unknown
73422;BME280;61637;47.760;-122.022;2023-04-03T05:18:01;101591.7;;;0.4;unknown
73422;BME280;61637;47.760;-122.022;2023-04-03T05:20:01;101591.7;;;0.4;unknown
73422;BME280;61637;47.760;-122.022;2023-04-03T05:22:01;101591.7;;;0.4;unknown
73422;BME280;61637;47.760;-122.022;2023-04-03T05:24:01;101591.7;;;0.4;unknown
73422;BME280;61637;47.760;-122.022;2023-04-03T05:26:01;101591.7;;;0.4;unknown
73422;BME280;61637;47.760;-122.022;2023-04-03T05:28:01;101591.7;;;0.4;unknown
73422;BME280;61637;47.760;-122.022;2023-04-03T05:30:01;101591.7;;;0.3;unknown
73422;BME280;61637;47.760;-122.022;2023-04-03T05:32:01;101591.7;;;0.3;unknown
73422;BME280;61637;47.760;-122.022;2023-04-03T05:34:01;101591.7;;;0.3;unknown
73422;BME280;61637;47.760;-122.022;2023-04-03T05:36:02;101591.7;;;0.3;unknown
73422;BME280;61637;47.760;-122.022;2023-04-03T05:38:01;101591.7;;;0.3;unknown
73422;BME280;61637;47.760;-122.022;2023-04-03T05:40:01;101591.7;;;0.3;unknown
73422;BME280;61637;47.760;-122.022;2023-04-03T05:42:01;101591.7;;;0.3;unknown
73422;BME280;61637;47.760;-122.022;2023-04-03T05:44:01;101591.7;;;0.3;unknown
73422;BME280;61637;47.760;-122.022;2023-04-03T05:46:01;101591.7;;;0.3;unknown
73422;BME280;61637;47.760;-122.022;2023-04-03T05:48:01;101591.7;;;0.2;unknown
73422;BME280;61637;47.760;-122.022;2023-04-03T05:50:01;101591.7;;;0.3;unknown
73422;BME280;61637;47.760;-122.022;2023-04-03T05:52:01;101591.7;;;0.3;unknown
73422;BME280;61637;47.760;-122.022;2023-04-03T05:54:03;101591.7;;;0.3;unknown
73422;BME280;61637;47.760;-122.022;2023-04-03T05:56:01;101591.7;;;0.3;unknown
73422;BME280;61637;47.760;-122.022;2023-04-03T05:58:01;101591.7;;;0.3;unknown
73422;BME280;61637;47.760;-122.022;2023-04-03T06:00:01;101591.7;;;0.3;unknown
73422;BME280;61637;47.760;-122.022;2023-04-03T06:02:01;101591.7;;;0.3;unknown
73422;BME280;61637;47.760;-122.022;2023-04-03T06:04:01;101591.7;;;0.3;unknown
73422;BME280;61637;47.760;-122.022;2023-04-03T06:06:02;101591.7;;;0.3;unknown
73422;BME280;61637;47.760;-122.022;2023-04-03T06:08:01;101591.7;;;0.3;unknown
73422;BME280;61637;47.760;-122.022;2023-04-03T06:10:01;101591.7;;;0.3;unknown
73422;BME280;61637;47.760;-122.022;2023-04-03T06:12:01;101591.7;;;0.3;unknown
73422;BME280;61637;47.760;-122.022;2023-04-03T06:14:01;101591.7;;;0.3;unknown
73422;BME280;61637;47.760;-122.022;2023-04-03T06:16:01;101591.7;;;0.3;unknown
73422;BME280;61637;47.760;-122.022;2023-04-03T06:18:01;101591.7;;;0.3;unknown
73422;BME280;61637;47.760;-122.022;2023-04-03T06:20:01;101591.7;;;0.3;unknown
73422;BME280;61637;47.760;-122.022;2023-04-03T06:22:01;101591.7;;;0.2;unknown
73422;BME280;61637;47.760;-122.022;2023-04-03T06:24:01;101591.7;;;0.2;unknown
73422;BME280;61637;47.760;-122.022;2023-04-03T06:26:01;101591.7;;;0.2;unknown
73422;BME280;61637;47.760;-122.022;2023-04-03T06:28:01;101591.7;;;0.3;unknown
73422;BME280;61637;47.760;-122.022;2023-04-03T06:30:01;101591.7;;;0.3;unknown
73422;BME280;61637;47.760;-122.022;2023-04-03T06:32:01;101591.7;;;0.3;unknown
73422;BME280;61637;47.760;-122.022;2023-04-03T06:34:01;101591.7;;;0.3;unknown
73422;BME280;61637;47.760;-122.022;2023-04-03T06:36:02;101591.7;;;0.3;unknown
73422;BME280;61637;47.760;-122.022;2023-04-03T06:38:01;101591.7;;;0.2;unknown
73422;BME280;61637;47.760;-122.022;2023-04-03T06:40:01;101591.7;;;0.2;unknown
73422;BME280;61637;47.760;-122.022;2023-04-03T06:42:01;101591.7;;;0.2;unknown
73422;BME280;61637;47.760;-122.022;2023-04-03T06:44:01;101591.7;;;0.2;unknown
73422;BME280;61637;47.760;-122.022;2023-04-03T06:46:01;101591.7;;;0.2;unknown
73422;BME280;61637;47.760;-122.022;2023-04-03T06:48:01;101591.7;;;0.2;unknown
73422;BME280;61637;47.760;-122.022;2023-04-03T06:50:01;101591.7;;;0.2;unknown
73422;BME280;61637;47.760;-122.022;2023-04-03T06:52:01;101591.7;;;0.2;unknown
73422;BME280;61637;47.760;-122.022;2023-04-03T06:54:01;101591.7;;;0.2;unknown
73422;BME280;61637;47.760;-122.022;2023-04-03T06:56:01;101591.7;;;0.2;unknown
73422;BME280;61637;47.760;-122.022;2023-04-03T06:58:01;101591.7;;;0.2;unknown
73422;BME280;61637;47.760;-122.022;2023-04-03T07:00:01;101591.7;;;0.2;unknown
73422;BME280;61637;47.760;-122.022;2023-04-03T07:02:01;101591.7;;;0.2;unknown
73422;BME280;61637;47.760;-122.022;2023-04-03T07:04:01;101591.7;;;0.2;unknown
73422;BME280;61637;47.760;-122.022;2023-04-03T07:06:01;101591.7;;;0.2;unknown
73422;BME280;61637;47.760;-122.022;2023-04-03T07:08:01;101591.7;;;0.3;unknown
73422;BME280;61637;47.760;-122.022;2023-04-03T07:10:01;101591.7;;;0.3;unknown
73422;BME280;61637;47.760;-122.022;2023-04-03T07:12:01;101591.7;;;0.2;unknown
73422;BME280;61637;47.760;-122.022;2023-04-03T07:14:01;101591.7;;;0.2;unknown
73422;BME280;61637;47.760;-122.022;2023-04-03T07:16:01;101591.7;;;0.2;unknown
73422;BME280;61637;47.760;-122.022;2023-04-03T07:18:01;101591.7;;;0.2;unknown
73422;BME280;61637;47.760;-122.022;2023-04-03T07:20:01;101591.7;;;0.2;unknown
73422;BME280;61637;47.760;-122.022;2023-04-03T07:22:01;101591.7;;;0.2;unknown
73422;BME280;61637;47.760;-122.022;2023-04-03T07:24:01;101591.7;;;0.2;unknown
73422;BME280;61637;47.760;-122.022;2023-04-03T07:26:01;101591.7;;;0.2;unknown
73422;BME280;61637;47.760;-122.022;2023-04-03T07:28:01;101591.7;;;0.2;unknown
73422;BME280;61637;47.760;-122.022;2023-04-03T07:30:01;101591.7;;;0.2;unknown
73422;BME280;61637;47.760;-122.022;2023-04-03T07:32:01;101591.7;;;0.2;unknown
73422;BME280;61637;47.760;-122.022;2023-04-03T07:34:01;101591.7;;;0.2;unknown
73422;BME280;61637;47.760;-122.022;2023-04-03T07:36:01;101591.7;;;0.2;unknown
73422;BME280;61637;47.760;-122.022;2023-04-03T07:38:01;101591.7;;;0.2;unknown
73422;BME280;61637;47.760;-122.022;2023-04-03T07:40:01;101591.7;;;0.2;unknown
73422;BME280;61637;47.760;-122.022;2023-04-03T07:42:01;101591.7;;;0.2;unknown
73422;BME280;61637;47.760;-122.022;2023-04-03T07:44:01;101591.7;;;0.2;unknown
73422;BME280;61637;47.760;-122.022;2023-04-03T07:46:01;101591.7;;;0.2;unknown
73422;BME280;61637;47.760;-122.022;2023-04-03T07:48:01;101591.7;;;0.2;unknown
73422;BME280;61637;47.760;-122.022;2023-04-03T07:50:01;101591.7;;;0.2;unknown
73422;BME280;61637;47.760;-122.022;2023-04-03T07:52:01;101591.7;;;0.2;unknown
73422;BME280;61637;47.760;-122.022;2023-04-03T07:54:01;101591.7;;;0.2;unknown
73422;BME280;61637;47.760;-122.022;2023-04-03T07:56:01;101591.7;;;0.2;unknown
73422;BME280;61637;47.760;-122.022;2023-04-03T07:58:01;101591.7;;;0.2;unknown
73422;BME280;61637;47.760;-122.022;2023-04-03T08:00:01;101591.7;;;0.2;unknown
73422;BME280;61637;47.760;-122.022;2023-04-03T08:02:01;101591.7;;;0.1;unknown
73422;BME280;61637;47.760;-122.022;2023-04-03T08:04:01;101591.7;;;0.1;unknown
73422;BME280;61637;47.760;-122.022;2023-04-03T08:06:02;101591.7;;;0.1;unknown
73422;BME280;61637;47.760;-122.022;2023-04-03T08:08:01;101591.7;;;0.2;unknown
73422;BME280;61637;47.760;-122.022;2023-04-03T08:10:01;101591.7;;;0.2;unknown
73422;BME280;61637;47.760;-122.022;2023-04-03T08:12:01;101591.7;;;0.2;unknown
73422;BME280;61637;47.760;-122.022;2023-04-03T08:14:01;101591.7;;;0.2;unknown
73422;BME280;61637;47.760;-122.022;2023-04-03T08:16:06;101591.7;;;0.2;unknown
73422;BME280;61637;47.760;-122.022;2023-04-03T08:18:01;101591.7;;;0.2;unknown
73422;BME280;61637;47.760;-122.022;2023-04-03T08:20:01;101591.7;;;0.1;unknown
73422;BME280;61637;47.760;-122.022;2023-04-03T08:22:01;101591.7;;;0.1;unknown
73422;BME280;61637;47.760;-122.022;2023-04-03T08:24:01;101591.7;;;0.2;unknown
73422;BME280;61637;47.760;-122.022;2023-04-03T08:26:05;101591.7;;;0.1;unknown
73422;BME280;61637;47.760;-122.022;2023-04-03T08:28:01;101591.7;;;0.2;unknown
73422;BME280;61637;47.760;-122.022;2023-04-03T08:30:01;101591.7;;;0.2;unknown
73422;BME280;61637;47.760;-122.022;2023-04-03T08:32:01;101591.7;;;0.2;unknown
73422;BME280;61637;47.760;-122.022;2023-04-03T08:34:01;101591.7;;;0.2;unknown
73422;BME280;61637;47.760;-122.022;2023-04-03T08:36:01;101591.7;;;0.2;unknown
73422;BME280;61637;47.760;-122.022;2023-04-03T08:38:01;101591.7;;;0.2;unknown
73422;BME280;61637;47.760;-122.022;2023-04-03T08:40:01;101591.7;;;0.2;unknown
73422;BME280;61637;47.760;-122.022;2023-04-03T08:42:02;101591.7;;;0.2;unknown
73422;BME280;61637;47.760;-122.022;2023-04-03T08:44:03;101591.7;;;0.3;unknown
73422;BME280;61637;47.760;-122.022;2023-04-03T08:46:01;101591.7;;;0.3;unknown
73422;BME280;61637;47.760;-122.022;2023-04-03T08:48:03;101591.7;;;0.3;unknown
73422;BME280;61637;47.760;-122.022;2023-04-03T08:50:01;101591.7;;;0.3;unknown
73422;BME280;61637;47.760;-122.022;2023-04-03T08:52:03;101591.7;;;0.3;unknown
73422;BME280;61637;47.760;-122.022;2023-04-03T08:54:02;101591.7;;;0.3;unknown
73422;BME280;61637;47.760;-122.022;2023-04-03T08:56:02;101591.7;;;0.3;unknown
73422;BME280;61637;47.760;-122.022;2023-04-03T08:58:01;101591.7;;;0.2;unknown
73422;BME280;61637;47.760;-122.022;2023-04-03T09:00:03;101591.7;;;0.3;unknown
73422;BME280;61637;47.760;-122.022;2023-04-03T09:02:02;101591.7;;;0.2;unknown
73422;BME280;61637;47.760;-122.022;2023-04-03T09:04:01;101591.7;;;0.2;unknown
73422;BME280;61637;47.760;-122.022;2023-04-03T09:06:02;101591.7;;;0.2;unknown
73422;BME280;61637;47.760;-122.022;2023-04-03T09:08:03;101591.7;;;0.2;unknown
73422;BME280;61637;47.760;-122.022;2023-04-03T09:10:01;101591.7;;;0.2;unknown
73422;BME280;61637;47.760;-122.022;2023-04-03T09:12:04;101591.7;;;0.2;unknown
73422;BME280;61637;47.760;-122.022;2023-04-03T09:14:01;101591.7;;;0.2;unknown
73422;BME280;61637;47.760;-122.022;2023-04-03T09:16:01;101591.7;;;0.2;unknown
73422;BME280;61637;47.760;-122.022;2023-04-03T09:18:02;101591.7;;;0.2;unknown
73422;BME280;61637;47.760;-122.022;2023-04-03T09:20:02;101591.7;;;0.2;unknown
73422;BME280;61637;47.760;-122.022;2023-04-03T09:22:02;101591.7;;;0.2;unknown
73422;BME280;61637;47.760;-122.022;2023-04-03T09:24:01;101591.7;;;0.2;unknown
73422;BME280;61637;47.760;-122.022;2023-04-03T09:26:02;101591.7;;;0.3;unknown
73422;BME280;61637;47.760;-122.022;2023-04-03T09:28:01;101591.7;;;0.3;unknown
73422;BME280;61637;47.760;-122.022;2023-04-03T09:30:01;101591.7;;;0.3;unknown
73422;BME280;61637;47.760;-122.022;2023-04-03T09:32:01;101591.7;;;0.3;unknown
73422;BME280;61637;47.760;-122.022;2023-04-03T09:34:02;101591.7;;;0.3;unknown
73422;BME280;61637;47.760;-122.022;2023-04-03T09:36:01;101591.7;;;0.3;unknown
73422;BME280;61637;47.760;-122.022;2023-04-03T09:38:01;101591.7;;;0.3;unknown
73422;BME280;61637;47.760;-122.022;2023-04-03T09:40:01;101591.7;;;0.4;unknown
73422;BME280;61637;47.760;-122.022;2023-04-03T09:42:02;101591.7;;;0.4;unknown
73422;BME280;61637;47.760;-122.022;2023-04-03T09:44:01;101591.7;;;0.4;unknown
73422;BME280;61637;47.760;-122.022;2023-04-03T09:48:05;101591.7;;;0.4;unknown
73422;BME280;61637;47.760;-122.022;2023-04-03T09:50:10;101591.7;;;0.4;unknown